Time;durP1;ratioP1;P1;durP2;ratioP2;P2;SDS_P1;SDS_P2;PMS_P1;PMS_P2;Temp;Humidity;BMP_temperature;BMP_pressure;BME280_temperature;BME280_humidity;BME280_pressure;Samples;Min_cycle;Max_cycle;Signal;HPM_P1;HPM_P2
2021/05/19 00:02:21;;;;;;;23.30;18.97;;;;;;;;;;5056801;28;20412;-61
2021/05/19 00:04:47;;;;;;;27.77;19.97;;;;;;;;;;5057039;28;20409;-61
2021/05/19 00:07:13;;;;;;;27.13;21.33;;;;;;;;;;5057093;28;20429;-61
2021/05/19 00:09:39;;;;;;;23.13;19.30;;;;;;;;;;5056862;28;20456;-61
2021/05/19 00:12:06;;;;;;;24.07;18.80;;;;;;;;;;5056871;28;20397;-61
2021/05/19 00:14:32;;;;;;;24.47;19.53;;;;;;;;;;5056801;28;20397;-62
2021/05/19 00:16:58;;;;;;;25.13;19.43;;;;;;;;;;5056991;28;20421;-61
2021/05/19 00:19:24;;;;;;;25.97;20.07;;;;;;;;;;5056912;28;20404;-61
2021/05/19 00:21:50;;;;;;;30.47;21.80;;;;;;;;;;5056854;28;20408;-62
2021/05/19 00:24:15;;;;;;;30.17;21.30;;;;;;;;;;5056783;28;20409;-62
2021/05/19 00:26:41;;;;;;;30.87;21.90;;;;;;;;;;5056911;28;20897;-60
2021/05/19 00:29:12;;;;;;;26.73;20.33;;;;;;;;;;5056657;28;20480;-61
2021/05/19 00:31:39;;;;;;;30.20;22.00;;;;;;;;;;5056747;28;20419;-61
2021/05/19 00:34:05;;;;;;;28.47;21.93;;;;;;;;;;5056733;28;20411;-61
2021/05/19 00:36:31;;;;;;;28.47;21.23;;;;;;;;;;5055585;28;20407;-61
2021/05/19 00:38:57;;;;;;;26.43;20.53;;;;;;;;;;5056880;28;20806;-62
2021/05/19 00:41:24;;;;;;;34.30;20.33;;;;;;;;;;5056609;28;20568;-60
2021/05/19 00:43:50;;;;;;;28.80;18.70;;;;;;;;;;5056698;28;20416;-61
2021/05/19 00:46:16;;;;;;;39.27;24.87;;;;;;;;;;5056578;28;20412;-61
2021/05/19 00:48:42;;;;;;;29.13;21.47;;;;;;;;;;5056731;28;20424;-60
2021/05/19 00:51:08;;;;;;;30.13;20.67;;;;;;;;;;5056696;28;20474;-60
2021/05/19 00:53:34;;;;;;;29.50;20.93;;;;;;;;;;5056665;28;20404;-60
2021/05/19 00:56:00;;;;;;;28.77;21.20;;;;;;;;;;5056708;28;20400;-62
2021/05/19 00:58:27;;;;;;;26.50;20.40;;;;;;;;;;5056643;28;20471;-62
2021/05/19 01:00:53;;;;;;;27.47;21.17;;;;;;;;;;5056376;28;20400;-61
2021/05/19 01:03:19;;;;;;;29.43;21.43;;;;;;;;;;5054809;28;20409;-61
2021/05/19 01:05:55;;;;;;;34.63;23.30;;;;;;;;;;5055851;28;20779;-62
2021/05/19 01:11:08;;;;;;;46.83;27.60;;;;;;;;;;5053356;28;20412;-60
2021/05/19 01:13:35;;;;;;;48.03;28.00;;;;;;;;;;5053261;28;20797;-60
2021/05/19 01:16:01;;;;;;;51.30;29.13;;;;;;;;;;5053289;28;20421;-62
2021/05/19 01:18:27;;;;;;;43.60;27.00;;;;;;;;;;5053308;28;21165;-62
2021/05/19 01:20:55;;;;;;;43.77;27.57;;;;;;;;;;5053183;28;20412;-60
2021/05/19 01:23:21;;;;;;;46.70;29.17;;;;;;;;;;5052847;28;20389;-62
2021/05/19 01:25:47;;;;;;;42.27;28.17;;;;;;;;;;5053235;28;20425;-60
2021/05/19 01:28:13;;;;;;;38.53;25.50;;;;;;;;;;5052959;28;20441;-60
2021/05/19 01:30:39;;;;;;;38.90;25.60;;;;;;;;;;5053019;28;20455;-60
2021/05/19 01:33:05;;;;;;;36.87;27.27;;;;;;;;;;5052704;28;20411;-61
2021/05/19 01:35:31;;;;;;;37.90;25.03;;;;;;;;;;5053006;28;20400;-61
2021/05/19 01:37:57;;;;;;;38.37;24.50;;;;;;;;;;5052629;28;20831;-60
2021/05/19 01:40:23;;;;;;;33.67;23.80;;;;;;;;;;5052979;28;20412;-60
2021/05/19 01:42:50;;;;;;;33.77;22.63;;;;;;;;;;5052458;28;20492;-60
2021/05/19 01:45:17;;;;;;;30.63;22.13;;;;;;;;;;5052755;28;20405;-61
2021/05/19 01:47:48;;;;;;;36.93;23.00;;;;;;;;;;5052416;28;20471;-60
2021/05/19 01:50:18;;;;;;;40.27;23.40;;;;;;;;;;5052580;28;20819;-60
2021/05/19 01:52:45;;;;;;;43.13;26.07;;;;;;;;;;5052248;28;20398;-60
2021/05/19 01:55:12;;;;;;;42.93;24.70;;;;;;;;;;5052649;28;20401;-62
2021/05/19 01:57:38;;;;;;;43.70;27.13;;;;;;;;;;5052336;28;20475;-61
2021/05/19 02:00:06;;;;;;;45.43;28.63;;;;;;;;;;5052414;28;20396;-61
2021/05/19 02:02:32;;;;;;;41.10;27.50;;;;;;;;;;5052159;28;20404;-60
2021/05/19 02:04:58;;;;;;;51.30;31.07;;;;;;;;;;5052178;28;20404;-60
2021/05/19 02:07:24;;;;;;;47.43;29.37;;;;;;;;;;5051063;28;20444;-61
2021/05/19 02:09:50;;;;;;;39.27;27.00;;;;;;;;;;5050821;28;20823;-61
2021/05/19 02:12:16;;;;;;;51.93;31.60;;;;;;;;;;5052025;28;20493;-61
2021/05/19 02:14:42;;;;;;;57.03;33.43;;;;;;;;;;5052057;28;20411;-60
2021/05/19 02:17:08;;;;;;;65.00;35.57;;;;;;;;;;5052180;28;20420;-61
2021/05/19 02:19:34;;;;;;;60.67;33.10;;;;;;;;;;5051618;28;20408;-61
2021/05/19 02:22:00;;;;;;;58.90;34.90;;;;;;;;;;5051969;28;20462;-60
2021/05/19 02:24:26;;;;;;;68.87;36.20;;;;;;;;;;5051866;28;20421;-61
2021/05/19 02:26:53;;;;;;;58.13;33.20;;;;;;;;;;5050678;28;20437;-60
2021/05/19 02:29:18;;;;;;;57.83;31.90;;;;;;;;;;5051742;28;20448;-61
2021/05/19 02:31:45;;;;;;;57.33;34.10;;;;;;;;;;5051805;28;20408;-61
2021/05/19 02:34:12;;;;;;;57.53;31.80;;;;;;;;;;5051545;28;20412;-61
2021/05/19 02:36:38;;;;;;;51.80;32.63;;;;;;;;;;5051774;28;20408;-60
2021/05/19 02:39:05;;;;;;;50.20;32.00;;;;;;;;;;5051776;28;20845;-61
2021/05/19 02:41:31;;;;;;;48.50;32.70;;;;;;;;;;5050281;28;20925;-62
2021/05/19 02:43:57;;;;;;;56.27;34.80;;;;;;;;;;5051696;28;20411;-61
2021/05/19 02:46:23;;;;;;;51.57;32.80;;;;;;;;;;5051479;28;20405;-61
2021/05/19 02:48:49;;;;;;;50.47;33.63;;;;;;;;;;5051444;28;21022;-62
2021/05/19 02:51:17;;;;;;;48.43;30.63;;;;;;;;;;5051353;28;20424;-61
2021/05/19 02:53:44;;;;;;;50.77;31.90;;;;;;;;;;5051556;28;20405;-62
2021/05/19 02:56:10;;;;;;;49.83;32.10;;;;;;;;;;5051546;28;20412;-61
2021/05/19 02:58:36;;;;;;;53.87;33.97;;;;;;;;;;5050350;28;20425;-61
2021/05/19 03:01:03;;;;;;;52.03;31.43;;;;;;;;;;5051348;28;20410;-61
2021/05/19 03:03:29;;;;;;;44.60;29.13;;;;;;;;;;5051074;28;20437;-60
2021/05/19 03:05:55;;;;;;;44.37;28.40;;;;;;;;;;5051198;28;20906;-60
2021/05/19 03:08:21;;;;;;;43.40;30.10;;;;;;;;;;5051217;28;20912;-61
2021/05/19 03:10:47;;;;;;;51.10;31.83;;;;;;;;;;5050949;28;20546;-60
2021/05/19 03:13:13;;;;;;;48.80;32.60;;;;;;;;;;5050846;28;20455;-61
2021/05/19 03:15:39;;;;;;;52.90;31.67;;;;;;;;;;5050974;28;20414;-61
2021/05/19 03:18:05;;;;;;;45.87;30.00;;;;;;;;;;5050963;28;20421;-61
2021/05/19 03:20:31;;;;;;;46.17;29.93;;;;;;;;;;5049782;28;20424;-61
2021/05/19 03:22:57;;;;;;;58.07;33.60;;;;;;;;;;5050629;28;20448;-61
2021/05/19 03:25:23;;;;;;;57.77;34.40;;;;;;;;;;5050948;28;20820;-61
2021/05/19 03:27:49;;;;;;;50.83;31.53;;;;;;;;;;5050682;28;20815;-61
2021/05/19 03:30:16;;;;;;;50.67;32.47;;;;;;;;;;5050100;28;20448;-61
2021/05/19 03:32:43;;;;;;;54.40;32.03;;;;;;;;;;5050370;28;20405;-61
2021/05/19 03:35:09;;;;;;;49.07;31.77;;;;;;;;;;5050796;28;20404;-61
2021/05/19 03:37:35;;;;;;;60.23;35.07;;;;;;;;;;5050548;28;20471;-60
2021/05/19 03:40:02;;;;;;;46.57;29.93;;;;;;;;;;5050747;28;20404;-60
2021/05/19 03:42:27;;;;;;;54.57;32.80;;;;;;;;;;5050273;28;20458;-61
2021/05/19 03:44:53;;;;;;;54.73;31.07;;;;;;;;;;5050581;28;20413;-60
2021/05/19 03:47:19;;;;;;;51.60;32.10;;;;;;;;;;5050309;28;20463;-61
2021/05/19 03:49:48;;;;;;;51.00;30.10;;;;;;;;;;5050659;28;20459;-60
2021/05/19 03:52:14;;;;;;;52.43;30.90;;;;;;;;;;5050187;28;20396;-60
2021/05/19 03:54:40;;;;;;;49.03;30.67;;;;;;;;;;5050604;28;20931;-61
2021/05/19 03:57:07;;;;;;;47.47;29.40;;;;;;;;;;5050380;28;20425;-61
2021/05/19 03:59:33;;;;;;;54.57;32.70;;;;;;;;;;5050418;28;20493;-61
2021/05/19 04:01:59;;;;;;;56.47;33.00;;;;;;;;;;5050376;28;20404;-61
2021/05/19 04:04:25;;;;;;;46.63;30.00;;;;;;;;;;5050332;28;20411;-61
2021/05/19 04:06:52;;;;;;;44.97;28.70;;;;;;;;;;5050431;28;20481;-60
2021/05/19 04:09:18;;;;;;;46.53;29.97;;;;;;;;;;5050283;28;20532;-60
2021/05/19 04:11:44;;;;;;;43.07;26.17;;;;;;;;;;5050222;28;20486;-60
2021/05/19 04:14:10;;;;;;;38.90;24.83;;;;;;;;;;5050169;28;20399;-60
2021/05/19 04:16:36;;;;;;;39.47;27.07;;;;;;;;;;5049189;28;20412;-61
2021/05/19 04:19:03;;;;;;;54.07;32.07;;;;;;;;;;5050300;28;20394;-60
2021/05/19 04:21:29;;;;;;;51.07;31.73;;;;;;;;;;5050306;28;20422;-60
2021/05/19 04:23:55;;;;;;;48.13;33.27;;;;;;;;;;5050210;28;20413;-60
2021/05/19 04:26:21;;;;;;;48.80;29.43;;;;;;;;;;5050390;28;20436;-60
2021/05/19 04:28:47;;;;;;;45.37;29.37;;;;;;;;;;5050021;28;20855;-61
2021/05/19 04:31:13;;;;;;;49.20;30.90;;;;;;;;;;5050229;28;20769;-61
2021/05/19 04:33:39;;;;;;;45.53;27.77;;;;;;;;;;5050122;28;20401;-61
2021/05/19 04:36:05;;;;;;;47.53;30.50;;;;;;;;;;5050321;28;20406;-61
2021/05/19 04:38:32;;;;;;;45.37;29.27;;;;;;;;;;5050192;28;20416;-60
2021/05/19 04:40:58;;;;;;;43.37;29.37;;;;;;;;;;5050283;28;20419;-61
2021/05/19 04:43:25;;;;;;;40.77;28.43;;;;;;;;;;5053824;28;20409;-61
2021/05/19 04:45:51;;;;;;;42.80;29.00;;;;;;;;;;5054005;28;20906;-60
2021/05/19 04:48:17;;;;;;;44.47;30.37;;;;;;;;;;5053941;28;20452;-60
2021/05/19 04:50:43;;;;;;;45.00;27.30;;;;;;;;;;5053749;28;20460;-60
2021/05/19 04:53:09;;;;;;;43.63;28.73;;;;;;;;;;5053692;28;20428;-61
2021/05/19 04:55:37;;;;;;;47.07;29.80;;;;;;;;;;5053697;28;20747;-61
2021/05/19 04:58:03;;;;;;;42.23;26.60;;;;;;;;;;5053555;28;20424;-60
2021/05/19 05:00:31;;;;;;;41.57;27.93;;;;;;;;;;5053526;28;20405;-61
2021/05/19 05:02:57;;;;;;;45.67;29.90;;;;;;;;;;5053417;28;20401;-61
2021/05/19 05:05:23;;;;;;;46.07;29.03;;;;;;;;;;5053454;28;20409;-62
2021/05/19 05:07:49;;;;;;;36.87;25.47;;;;;;;;;;5053462;28;20470;-62
2021/05/19 05:10:15;;;;;;;41.27;28.60;;;;;;;;;;5053279;28;21063;-61
2021/05/19 05:12:43;;;;;;;38.30;26.80;;;;;;;;;;5053119;28;20754;-61
2021/05/19 05:15:14;;;;;;;41.23;28.17;;;;;;;;;;5053263;28;20425;-60
2021/05/19 05:17:40;;;;;;;39.70;28.67;;;;;;;;;;5053352;28;20496;-60
2021/05/19 05:20:08;;;;;;;38.10;26.90;;;;;;;;;;5053195;28;20401;-61
2021/05/19 05:22:34;;;;;;;37.87;26.00;;;;;;;;;;5053592;28;20428;-61
2021/05/19 05:25:00;;;;;;;44.97;28.57;;;;;;;;;;5052936;28;20878;-61
2021/05/19 05:27:26;;;;;;;34.23;25.70;;;;;;;;;;5052875;28;20433;-61
2021/05/19 05:29:52;;;;;;;38.50;26.90;;;;;;;;;;5052916;28;20460;-60
2021/05/19 05:32:18;;;;;;;36.30;27.00;;;;;;;;;;5052620;28;20749;-61
2021/05/19 05:34:44;;;;;;;39.70;25.63;;;;;;;;;;5052959;28;20405;-61
2021/05/19 05:37:10;;;;;;;41.83;27.30;;;;;;;;;;5052685;28;20428;-60
2021/05/19 05:39:36;;;;;;;38.13;25.80;;;;;;;;;;5051369;28;20489;-61
2021/05/19 05:42:02;;;;;;;32.50;24.53;;;;;;;;;;5052477;28;20897;-61
2021/05/19 05:44:27;;;;;;;30.07;22.47;;;;;;;;;;5052744;28;20406;-61
2021/05/19 05:46:53;;;;;;;34.43;23.50;;;;;;;;;;5052382;28;20496;-61
2021/05/19 05:49:19;;;;;;;35.87;24.30;;;;;;;;;;5052520;28;20452;-61
2021/05/19 05:51:45;;;;;;;33.10;24.40;;;;;;;;;;5052453;28;20896;-61
2021/05/19 05:54:12;;;;;;;39.57;23.60;;;;;;;;;;5051440;28;20485;-62
2021/05/19 05:56:40;;;;;;;31.17;22.73;;;;;;;;;;5052473;28;20409;-61
2021/05/19 05:59:07;;;;;;;32.73;22.13;;;;;;;;;;5052351;28;20401;-60
2021/05/19 06:01:33;;;;;;;32.83;22.10;;;;;;;;;;5052283;28;20882;-61
2021/05/19 06:03:59;;;;;;;25.40;20.53;;;;;;;;;;5052218;28;20397;-62
2021/05/19 06:06:25;;;;;;;27.30;21.03;;;;;;;;;;5052413;28;20865;-61
2021/05/19 06:08:51;;;;;;;32.10;21.33;;;;;;;;;;5051776;28;21114;-61
2021/05/19 06:11:17;;;;;;;26.67;19.73;;;;;;;;;;5052061;28;20401;-61
2021/05/19 06:13:43;;;;;;;25.93;20.23;;;;;;;;;;5052024;28;20481;-60
2021/05/19 06:16:09;;;;;;;27.87;18.67;;;;;;;;;;5052197;28;20494;-61
2021/05/19 06:18:35;;;;;;;22.17;18.63;;;;;;;;;;5051988;28;20421;-61
2021/05/19 06:21:01;;;;;;;24.20;16.67;;;;;;;;;;5052099;28;20742;-61
2021/05/19 06:23:27;;;;;;;17.40;15.20;;;;;;;;;;5051768;28;20459;-60
2021/05/19 06:25:53;;;;;;;18.20;15.60;;;;;;;;;;5052239;28;20499;-61
2021/05/19 06:28:19;;;;;;;20.47;16.73;;;;;;;;;;5052196;28;20423;-61
2021/05/19 06:30:45;;;;;;;26.17;15.23;;;;;;;;;;5051867;28;20462;-61
2021/05/19 06:33:12;;;;;;;18.87;16.07;;;;;;;;;;5051767;28;20901;-61
2021/05/19 06:35:38;;;;;;;17.03;14.70;;;;;;;;;;5051804;28;20414;-61
2021/05/19 06:38:04;;;;;;;18.87;15.77;;;;;;;;;;5051746;28;20427;-60
2021/05/19 06:40:30;;;;;;;19.60;14.90;;;;;;;;;;5051672;28;20415;-60
2021/05/19 06:42:57;;;;;;;18.70;14.87;;;;;;;;;;5051514;28;20406;-61
2021/05/19 06:45:23;;;;;;;26.50;15.90;;;;;;;;;;5051236;28;20946;-61
2021/05/19 06:47:49;;;;;;;16.50;12.33;;;;;;;;;;5050754;28;20439;-61
2021/05/19 06:50:15;;;;;;;14.30;12.80;;;;;;;;;;5050799;28;20482;-61
2021/05/19 06:52:41;;;;;;;19.67;13.20;;;;;;;;;;5050470;28;20396;-61
2021/05/19 06:55:08;;;;;;;20.03;13.20;;;;;;;;;;5050888;28;20412;-61
2021/05/19 06:57:37;;;;;;;14.03;11.77;;;;;;;;;;5050734;28;20453;-61
2021/05/19 07:00:06;;;;;;;18.67;13.07;;;;;;;;;;5050932;28;20487;-61
2021/05/19 07:02:32;;;;;;;12.93;11.23;;;;;;;;;;5050253;28;20409;-61
2021/05/19 07:04:58;;;;;;;19.87;11.87;;;;;;;;;;5049769;28;20404;-61
2021/05/19 07:07:24;;;;;;;16.90;10.37;;;;;;;;;;5049208;28;20441;-61
2021/05/19 07:09:50;;;;;;;14.00;11.17;;;;;;;;;;5051685;28;20460;-61
2021/05/19 07:12:17;;;;;;;15.20;10.13;;;;;;;;;;5050732;28;20408;-62
2021/05/19 07:14:57;;;;;;;12.03;9.30;;;;;;;;;;5051201;28;20408;-59
2021/05/19 07:17:23;;;;;;;12.30;8.90;;;;;;;;;;5050692;28;20420;-60
2021/05/19 07:19:49;;;;;;;11.33;7.33;;;;;;;;;;5050984;28;20412;-61
2021/05/19 07:22:15;;;;;;;12.87;9.20;;;;;;;;;;5050621;28;20488;-62
2021/05/19 07:24:41;;;;;;;12.53;8.50;;;;;;;;;;5051188;28;20404;-61
2021/05/19 07:27:07;;;;;;;16.70;8.40;;;;;;;;;;5050165;28;20417;-61
2021/05/19 07:29:33;;;;;;;14.83;9.20;;;;;;;;;;5050860;28;20444;-60
2021/05/19 07:31:59;;;;;;;18.80;8.30;;;;;;;;;;5050662;28;20740;-61
2021/05/19 07:34:26;;;;;;;13.47;7.30;;;;;;;;;;5050707;28;20404;-61
2021/05/19 07:36:52;;;;;;;12.50;8.00;;;;;;;;;;5050653;28;20431;-60
2021/05/19 07:39:18;;;;;;;10.13;8.00;;;;;;;;;;5050350;28;20496;-61
2021/05/19 07:41:44;;;;;;;9.37;7.00;;;;;;;;;;5050413;28;20504;-61
2021/05/19 07:44:10;;;;;;;12.70;7.43;;;;;;;;;;5050607;28;20400;-61
2021/05/19 07:46:37;;;;;;;8.73;6.73;;;;;;;;;;5050368;28;20443;-61
2021/05/19 07:49:03;;;;;;;14.17;8.20;;;;;;;;;;5050352;28;20449;-61
2021/05/19 07:51:29;;;;;;;11.00;6.50;;;;;;;;;;5050489;28;20400;-61
2021/05/19 07:53:56;;;;;;;7.37;5.90;;;;;;;;;;5050387;28;20372;-61
2021/05/19 07:58:57;;;;;;;8.63;6.40;;;;;;;;;;5050507;28;20422;-60
2021/05/19 08:03:51;;;;;;;9.70;6.13;;;;;;;;;;5050751;28;20461;-61
2021/05/19 08:06:17;;;;;;;10.77;5.80;;;;;;;;;;5050366;28;20451;-61
2021/05/19 08:08:43;;;;;;;10.20;5.87;;;;;;;;;;5050383;28;20453;-61
2021/05/19 08:11:10;;;;;;;10.53;6.03;;;;;;;;;;5050308;28;20899;-60
2021/05/19 08:13:39;;;;;;;7.00;4.97;;;;;;;;;;5050230;28;20373;-61
2021/05/19 08:16:06;;;;;;;9.10;5.07;;;;;;;;;;5050727;28;20405;-60
2021/05/19 08:18:31;;;;;;;10.70;4.93;;;;;;;;;;5054493;28;20394;-60
2021/05/19 08:20:57;;;;;;;7.80;4.50;;;;;;;;;;5054353;28;20375;-60
2021/05/19 08:23:23;;;;;;;7.77;4.40;;;;;;;;;;5054234;28;20401;-60
2021/05/19 08:25:49;;;;;;;9.37;4.60;;;;;;;;;;5054335;28;20401;-60
2021/05/19 08:28:15;;;;;;;11.57;4.13;;;;;;;;;;5054205;28;20429;-59
2021/05/19 08:30:41;;;;;;;12.07;5.23;;;;;;;;;;5054148;28;20434;-59
2021/05/19 08:33:07;;;;;;;10.00;4.70;;;;;;;;;;5052900;28;20409;-61
2021/05/19 08:35:33;;;;;;;6.50;3.67;;;;;;;;;;5053884;28;20398;-60
2021/05/19 08:37:59;;;;;;;5.33;3.77;;;;;;;;;;5054336;28;20516;-59
2021/05/19 08:40:26;;;;;;;5.70;4.03;;;;;;;;;;5054186;28;20788;-59
2021/05/19 08:42:52;;;;;;;9.00;4.43;;;;;;;;;;5053597;28;20379;-58
2021/05/19 08:45:18;;;;;;;7.33;4.60;;;;;;;;;;5053768;28;20380;-59
2021/05/19 08:47:44;;;;;;;6.27;3.47;;;;;;;;;;5053711;28;20523;-59
2021/05/19 08:50:11;;;;;;;4.30;3.37;;;;;;;;;;5053648;28;20448;-59
2021/05/19 08:52:42;;;;;;;8.43;3.90;;;;;;;;;;5053381;28;20518;-58
2021/05/19 08:55:09;;;;;;;7.80;3.57;;;;;;;;;;5053894;28;20403;-60
2021/05/19 08:57:38;;;;;;;7.80;4.13;;;;;;;;;;5053307;28;20420;-58
2021/05/19 09:00:07;;;;;;;5.77;3.90;;;;;;;;;;5053671;28;20400;-58
2021/05/19 09:02:33;;;;;;;5.77;4.17;;;;;;;;;;5052164;28;20447;-58
2021/05/19 09:05:00;;;;;;;5.60;4.30;;;;;;;;;;5053549;28;20368;-59
2021/05/19 09:07:26;;;;;;;4.47;4.07;;;;;;;;;;5053383;28;20915;-58
2021/05/19 09:09:53;;;;;;;6.13;4.40;;;;;;;;;;5053279;28;20424;-61
2021/05/19 09:12:19;;;;;;;5.13;4.50;;;;;;;;;;5041826;28;20422;-57
2021/05/19 09:14:54;;;;;;;6.73;4.23;;;;;;;;;;5043415;28;20490;-59
2021/05/19 09:17:30;;;;;;;7.13;4.27;;;;;;;;;;5045963;28;20946;-59
2021/05/19 09:19:59;;;;;;;9.77;4.53;;;;;;;;;;5037870;28;20438;-58
2021/05/19 09:22:29;;;;;;;6.67;5.20;;;;;;;;;;5052733;28;20405;-59
2021/05/19 09:24:55;;;;;;;7.30;4.80;;;;;;;;;;5051979;28;20399;-58
2021/05/19 09:27:21;;;;;;;7.83;4.23;;;;;;;;;;5051687;28;20766;-59
2021/05/19 09:29:49;;;;;;;7.23;3.83;;;;;;;;;;5052212;28;20423;-58
2021/05/19 09:32:16;;;;;;;11.77;4.30;;;;;;;;;;5052063;28;20372;-59
2021/05/19 09:34:43;;;;;;;5.10;4.50;;;;;;;;;;5042210;28;20377;-58
2021/05/19 09:37:12;;;;;;;6.60;4.40;;;;;;;;;;5040788;28;20438;-60
2021/05/19 09:39:47;;;;;;;5.27;3.43;;;;;;;;;;5034281;28;20410;-57
2021/05/19 09:42:13;;;;;;;3.73;3.43;;;;;;;;;;5032873;28;20410;-59
2021/05/19 09:44:40;;;;;;;4.30;3.73;;;;;;;;;;5036387;28;20376;-57
2021/05/19 09:47:05;;;;;;;5.87;4.10;;;;;;;;;;5041661;28;20450;-57
2021/05/19 09:49:31;;;;;;;4.00;3.67;;;;;;;;;;5042474;28;20424;-57
2021/05/19 09:51:58;;;;;;;4.43;2.90;;;;;;;;;;5052728;28;20368;-61
2021/05/19 09:54:24;;;;;;;2.73;2.10;;;;;;;;;;5052539;28;20376;-60
2021/05/19 09:56:53;;;;;;;4.20;2.33;;;;;;;;;;5052647;28;20428;-60
2021/05/19 09:59:20;;;;;;;9.30;3.10;;;;;;;;;;5052448;28;20405;-60
2021/05/19 10:01:52;;;;;;;4.23;3.50;;;;;;;;;;5052608;28;20409;-60
2021/05/19 10:04:21;;;;;;;4.87;2.00;;;;;;;;;;5051345;28;20376;-60
2021/05/19 10:06:48;;;;;;;3.00;1.50;;;;;;;;;;5050361;28;20402;-60
2021/05/19 10:09:15;;;;;;;1.70;1.50;;;;;;;;;;5050316;28;20455;-58
2021/05/19 10:11:42;;;;;;;4.73;1.50;;;;;;;;;;5050218;28;20368;-58
2021/05/19 10:14:10;;;;;;;4.10;1.37;;;;;;;;;;5050316;28;20372;-59
2021/05/19 10:16:36;;;;;;;4.00;1.97;;;;;;;;;;5050112;28;20432;-58
2021/05/19 10:19:03;;;;;;;6.67;2.23;;;;;;;;;;5050301;28;20400;-57
2021/05/19 10:21:30;;;;;;;5.33;1.97;;;;;;;;;;5051703;28;20773;-59
2021/05/19 10:24:05;;;;;;;2.37;1.60;;;;;;;;;;5051860;28;20398;-59
2021/05/19 10:26:33;;;;;;;3.00;2.10;;;;;;;;;;5051878;28;20452;-57
2021/05/19 10:28:59;;;;;;;3.17;1.70;;;;;;;;;;5051878;28;20372;-59
2021/05/19 10:31:41;;;;;;;4.40;1.83;;;;;;;;;;5051570;28;20748;-57
2021/05/19 10:34:07;;;;;;;6.93;2.10;;;;;;;;;;5051976;28;20766;-58
2021/05/19 10:36:35;;;;;;;5.17;2.27;;;;;;;;;;5051548;28;20881;-57
2021/05/19 10:39:10;;;;;;;6.90;1.87;;;;;;;;;;5051505;28;20467;-59
2021/05/19 10:41:36;;;;;;;10.23;2.67;;;;;;;;;;5051234;28;20401;-57
2021/05/19 10:44:09;;;;;;;5.20;1.93;;;;;;;;;;5050185;28;20777;-58
2021/05/19 10:46:50;;;;;;;8.10;2.27;;;;;;;;;;5051409;28;20392;-58
2021/05/19 10:49:20;;;;;;;3.17;1.73;;;;;;;;;;5051455;28;20423;-59
2021/05/19 10:52:02;;;;;;;4.00;2.00;;;;;;;;;;5051159;28;20505;-58
2021/05/19 10:57:31;;;;;;;6.00;1.80;;;;;;;;;;5051276;28;20820;-58
2021/05/19 11:00:17;;;;;;;5.00;2.77;;;;;;;;;;5051380;28;20405;-59
2021/05/19 11:02:57;;;;;;;2.83;1.57;;;;;;;;;;5051152;28;20451;-59
2021/05/19 11:05:23;;;;;;;4.40;1.50;;;;;;;;;;5051238;28;20405;-57
2021/05/19 11:08:07;;;;;;;3.53;1.53;;;;;;;;;;5050918;28;20411;-59
2021/05/19 11:10:34;;;;;;;2.50;1.70;;;;;;;;;;5051544;28;20453;-57
2021/05/19 11:13:00;;;;;;;1.93;1.60;;;;;;;;;;5050599;28;20421;-57
2021/05/19 11:15:49;;;;;;;6.83;1.90;;;;;;;;;;5051057;28;20368;-58
2021/05/19 11:18:17;;;;;;;3.90;1.50;;;;;;;;;;5050843;28;20938;-58
2021/05/19 11:20:43;;;;;;;1.87;1.77;;;;;;;;;;5051024;28;20412;-59
2021/05/19 11:23:10;;;;;;;7.47;1.80;;;;;;;;;;5051033;28;20455;-58
2021/05/19 11:25:36;;;;;;;6.00;2.53;;;;;;;;;;5050850;28;20409;-59
2021/05/19 11:28:02;;;;;;;5.30;1.80;;;;;;;;;;5050841;28;20410;-57
2021/05/19 11:30:29;;;;;;;6.50;1.80;;;;;;;;;;5050929;28;20452;-58
2021/05/19 11:33:09;;;;;;;12.07;1.90;;;;;;;;;;5050397;28;20398;-57
2021/05/19 11:35:35;;;;;;;6.37;1.57;;;;;;;;;;5050778;28;20386;-57
2021/05/19 11:38:02;;;;;;;4.93;1.60;;;;;;;;;;5050512;28;20479;-60
2021/05/19 11:40:37;;;;;;;3.87;1.60;;;;;;;;;;5050694;28;21000;-59
2021/05/19 11:43:04;;;;;;;7.57;2.37;;;;;;;;;;5050371;28;20429;-58
2021/05/19 11:45:30;;;;;;;13.73;2.00;;;;;;;;;;5050626;28;20436;-59
2021/05/19 11:47:56;;;;;;;6.00;1.40;;;;;;;;;;5050179;28;20488;-59
2021/05/19 11:50:27;;;;;;;3.60;2.13;;;;;;;;;;5050006;28;20949;-58
2021/05/19 11:52:59;;;;;;;1.87;1.60;;;;;;;;;;5050043;28;20393;-58
2021/05/19 11:55:34;;;;;;;3.23;1.47;;;;;;;;;;5050544;28;20399;-58
2021/05/19 11:58:14;;;;;;;2.47;1.20;;;;;;;;;;5050433;28;20379;-59
2021/05/19 12:00:46;;;;;;;3.90;1.67;;;;;;;;;;5050240;28;20383;-60
2021/05/19 12:03:13;;;;;;;4.37;1.23;;;;;;;;;;5050396;28;20397;-59
2021/05/19 12:05:46;;;;;;;7.37;2.80;;;;;;;;;;5050875;28;20988;-58
2021/05/19 12:08:13;;;;;;;2.77;1.87;;;;;;;;;;5050531;28;20479;-59
2021/05/19 12:10:40;;;;;;;3.93;1.90;;;;;;;;;;5050301;28;20453;-59
2021/05/19 12:13:06;;;;;;;2.50;1.63;;;;;;;;;;5050300;28;20452;-59
2021/05/19 12:15:33;;;;;;;15.30;2.30;;;;;;;;;;5050050;28;20409;-59
2021/05/19 12:17:59;;;;;;;8.47;2.10;;;;;;;;;;5050274;28;20995;-58
2021/05/19 12:20:26;;;;;;;4.00;1.80;;;;;;;;;;5050201;28;20405;-57
2021/05/19 12:22:53;;;;;;;4.80;1.47;;;;;;;;;;5050067;28;20401;-57
2021/05/19 12:25:19;;;;;;;2.20;1.80;;;;;;;;;;5050076;28;20814;-58
2021/05/19 12:27:46;;;;;;;3.97;1.90;;;;;;;;;;5050085;28;20426;-59
2021/05/19 12:30:12;;;;;;;6.73;1.80;;;;;;;;;;5049918;28;20485;-57
2021/05/19 12:32:43;;;;;;;2.60;1.60;;;;;;;;;;5049866;28;20758;-57
2021/05/19 12:35:12;;;;;;;4.60;1.73;;;;;;;;;;5050240;28;20405;-58
2021/05/19 12:37:41;;;;;;;2.77;2.03;;;;;;;;;;5049991;28;20456;-57
2021/05/19 12:40:08;;;;;;;2.90;1.50;;;;;;;;;;5050152;28;20431;-57
2021/05/19 12:42:41;;;;;;;5.57;2.13;;;;;;;;;;5049640;28;20771;-58
2021/05/19 12:45:08;;;;;;;6.57;2.10;;;;;;;;;;5050187;28;20397;-58
2021/05/19 12:47:34;;;;;;;2.43;2.10;;;;;;;;;;5049612;28;20851;-58
2021/05/19 12:50:04;;;;;;;3.97;2.10;;;;;;;;;;5049901;28;20445;-58
2021/05/19 12:52:31;;;;;;;6.60;1.70;;;;;;;;;;5049734;28;20900;-57
2021/05/19 12:54:57;;;;;;;10.13;2.90;;;;;;;;;;5048539;28;20532;-59
2021/05/19 12:57:27;;;;;;;7.90;2.00;;;;;;;;;;5049924;28;20421;-58
2021/05/19 13:00:11;;;;;;;5.80;2.33;;;;;;;;;;5049807;28;20928;-59
2021/05/19 13:02:37;;;;;;;7.60;3.07;;;;;;;;;;5050648;28;20404;-58
2021/05/19 13:05:04;;;;;;;3.73;2.40;;;;;;;;;;5053518;28;20466;-60
2021/05/19 13:07:30;;;;;;;4.43;2.33;;;;;;;;;;5053107;28;20519;-59
2021/05/19 13:10:12;;;;;;;4.77;2.07;;;;;;;;;;5053325;28;20610;-60
2021/05/19 13:12:56;;;;;;;5.73;2.03;;;;;;;;;;5053004;28;20429;-59
2021/05/19 13:15:31;;;;;;;5.30;1.70;;;;;;;;;;5053372;28;20812;-59
2021/05/19 13:18:01;;;;;;;4.10;1.70;;;;;;;;;;5042533;28;20841;-60
2021/05/19 13:20:29;;;;;;;1.97;1.40;;;;;;;;;;5033468;28;20416;-57
2021/05/19 13:22:56;;;;;;;2.67;1.00;;;;;;;;;;5033172;28;20413;-58
2021/05/19 13:25:24;;;;;;;2.93;1.60;;;;;;;;;;5033282;28;20774;-58
2021/05/19 13:27:51;;;;;;;2.03;1.03;;;;;;;;;;5033121;28;20429;-58
2021/05/19 13:30:18;;;;;;;2.30;1.50;;;;;;;;;;5032769;28;20450;-57
2021/05/19 13:32:55;;;;;;;3.03;1.20;;;;;;;;;;5033125;28;20907;-60
2021/05/19 13:38:06;;;;;;;4.70;1.30;;;;;;;;;;5033147;28;20425;-58
2021/05/19 13:40:32;;;;;;;3.00;1.30;;;;;;;;;;5032975;28;20394;-58
2021/05/19 13:42:58;;;;;;;7.30;1.27;;;;;;;;;;5032537;28;20780;-58
2021/05/19 13:45:24;;;;;;;1.30;1.20;;;;;;;;;;5032842;28;20402;-58
2021/05/19 13:47:50;;;;;;;1.57;1.00;;;;;;;;;;5032735;28;20959;-58
2021/05/19 13:50:18;;;;;;;1.67;1.00;;;;;;;;;;5031323;28;20977;-58
2021/05/19 13:52:44;;;;;;;1.87;1.00;;;;;;;;;;5032454;28;20398;-59
2021/05/19 13:55:10;;;;;;;5.70;1.30;;;;;;;;;;5031263;28;20464;-58
2021/05/19 13:57:37;;;;;;;3.00;1.23;;;;;;;;;;5032457;28;20426;-57
2021/05/19 14:00:04;;;;;;;3.93;1.70;;;;;;;;;;5032359;28;20403;-59
2021/05/19 14:02:31;;;;;;;3.47;2.80;;;;;;;;;;5032323;28;20398;-59
2021/05/19 14:04:57;;;;;;;3.13;2.47;;;;;;;;;;5032570;28;20398;-57
2021/05/19 14:07:23;;;;;;;2.20;1.90;;;;;;;;;;5032351;28;20426;-57
2021/05/19 14:09:49;;;;;;;3.20;1.93;;;;;;;;;;5032339;28;20460;-58
2021/05/19 14:12:28;;;;;;;2.50;2.30;;;;;;;;;;5031834;28;20394;-58
2021/05/19 14:15:00;;;;;;;2.93;1.90;;;;;;;;;;5031836;28;20423;-57
2021/05/19 14:28:22;;;;;;;3.43;2.83;;;;;;;;;;5032155;28;20421;-56
2021/05/19 14:30:48;;;;;;;2.67;2.43;;;;;;;;;;5031827;28;20789;-57
2021/05/19 14:33:14;;;;;;;3.53;2.33;;;;;;;;;;5031673;28;20412;-57
2021/05/19 14:46:40;;;;;;;4.40;2.70;;;;;;;;;;5031669;28;20460;-57
2021/05/19 14:53:59;;;;;;;2.70;2.50;;;;;;;;;;5031511;28;20455;-58
2021/05/19 15:00:09;;;;;;;2.83;2.67;;;;;;;;;;5031672;28;20356;-58
2021/05/19 15:02:40;;;;;;;6.10;2.60;;;;;;;;;;5031091;28;20423;-57
2021/05/19 15:05:07;;;;;;;14.53;8.93;;;;;;;;;;5031699;28;20395;-58
2021/05/19 15:07:33;;;;;;;3.30;2.87;;;;;;;;;;5031157;28;20475;-58
2021/05/19 15:09:59;;;;;;;4.20;2.30;;;;;;;;;;5031271;28;20450;-60
2021/05/19 15:12:25;;;;;;;4.93;2.63;;;;;;;;;;5030794;28;20377;-60
2021/05/19 15:14:50;;;;;;;2.87;2.67;;;;;;;;;;5031224;28;20461;-59